Time;durP1;ratioP1;P1;durP2;ratioP2;P2;SDS_P1;SDS_P2;PMS_P1;PMS_P2;Temp;Humidity;BMP_temperature;BMP_pressure;BME280_temperature;BME280_humidity;BME280_pressure;Samples;Min_cycle;Max_cycle;Signal;HPM_P1;HPM_P2
2021/12/02 00:01:37;;;;;;;1.50;0.67;;;;;;;7.56;78.17;97894.77;1745087;82;21062;-76
2021/12/02 00:04:05;;;;;;;1.00;0.70;;;;;;;7.56;78.15;97892.16;1736447;82;21023;-75
2021/12/02 00:06:32;;;;;;;1.13;0.50;;;;;;;7.58;78.04;97898.12;1745110;82;21010;-75
2021/12/02 00:08:59;;;;;;;1.43;0.80;;;;;;;7.57;78.06;97905.58;1736435;82;21011;-75
2021/12/02 00:11:26;;;;;;;1.00;0.40;;;;;;;7.63;77.92;97895.22;1745153;82;21107;-75
2021/12/02 00:21:51;;;;;;;0.83;0.50;;;;;;;7.72;77.20;97898.05;1745311;82;21038;-74
2021/12/02 00:24:20;;;;;;;1.17;0.40;;;;;;;7.70;77.06;97899.91;1745127;81;21809;-74
2021/12/02 00:26:49;;;;;;;0.42;0.37;;;;;;;7.67;76.62;97898.81;1736499;82;21019;-74
2021/12/02 00:29:20;;;;;;;0.80;0.50;;;;;;;7.71;76.48;97911.20;1745209;82;20999;-74
2021/12/02 00:31:52;;;;;;;1.87;0.47;;;;;;;7.72;76.26;97907.64;1744850;82;21574;-74
2021/12/02 00:34:20;;;;;;;0.63;0.40;;;;;;;7.71;76.19;97898.16;1745234;81;21029;-74
2021/12/02 00:36:47;;;;;;;0.83;0.40;;;;;;;7.68;75.81;97891.38;1736375;82;21129;-74
2021/12/02 00:39:18;;;;;;;1.27;0.60;;;;;;;7.68;75.61;97901.80;1743050;81;21332;-74
2021/12/02 00:41:46;;;;;;;1.57;0.27;;;;;;;7.69;75.85;97904.77;1736250;82;21031;-74
2021/12/02 00:44:14;;;;;;;0.57;0.30;;;;;;;7.68;75.60;97916.14;1742808;82;21467;-74
2021/12/02 00:46:44;;;;;;;0.70;0.40;;;;;;;7.70;75.37;97924.68;1742812;82;21026;-74
2021/12/02 00:49:15;;;;;;;0.77;0.50;;;;;;;7.69;75.18;97913.89;1736384;82;21140;-74
2021/12/02 00:51:49;;;;;;;0.50;0.40;;;;;;;7.69;75.00;97918.28;1742864;82;21457;-74
2021/12/02 00:54:17;;;;;;;1.83;0.50;;;;;;;7.72;74.36;97916.77;1730532;82;21367;-74
2021/12/02 00:56:44;;;;;;;0.70;0.60;;;;;;;7.73;74.27;97921.91;1742870;82;21004;-74
2021/12/02 00:59:11;;;;;;;0.70;0.30;;;;;;;7.73;73.97;97924.95;1742963;82;21645;-74
2021/12/02 01:01:38;;;;;;;0.47;0.37;;;;;;;7.73;73.83;97927.56;1742931;82;21132;-74
2021/12/02 01:04:15;;;;;;;1.70;0.40;;;;;;;7.71;73.94;97934.67;1734562;82;21063;-74
2021/12/02 01:06:43;;;;;;;0.30;0.30;;;;;;;7.70;74.00;97949.92;1742854;81;21018;-74
2021/12/02 01:09:12;;;;;;;0.77;0.30;;;;;;;7.66;74.00;97941.95;1735689;82;21564;-74
2021/12/02 01:11:40;;;;;;;0.77;0.33;;;;;;;7.61;73.83;97951.36;1743071;82;21123;-74
2021/12/02 01:14:09;;;;;;;0.27;0.27;;;;;;;7.56;73.88;97962.06;1742843;82;21128;-74
2021/12/02 01:16:37;;;;;;;1.00;0.30;;;;;;;7.53;73.86;97955.75;1742620;82;21536;-75
2021/12/02 01:19:06;;;;;;;1.67;0.50;;;;;;;7.48;73.82;97977.83;1742954;81;21006;-74
2021/12/02 01:21:35;;;;;;;0.70;0.37;;;;;;;7.41;73.70;97961.75;1782259;80;21026;-74
2021/12/02 01:24:05;;;;;;;1.57;0.30;;;;;;;7.35;73.32;97979.91;1761078;80;21471;-74
2021/12/02 01:26:35;;;;;;;0.30;0.20;;;;;;;7.31;73.16;97975.81;1782307;80;21439;-74
2021/12/02 01:29:04;;;;;;;3.15;0.33;;;;;;;7.26;73.08;97992.22;1782257;80;20997;-74
2021/12/02 01:31:35;;;;;;;1.12;0.40;;;;;;;7.22;71.41;97997.70;1782548;80;21076;-74
2021/12/02 01:34:08;;;;;;;1.03;0.30;;;;;;;7.16;72.08;97988.50;1782131;80;21562;-75
2021/12/02 01:36:39;;;;;;;0.40;0.30;;;;;;;7.10;71.76;97988.41;1743117;82;21014;-74
2021/12/02 01:39:08;;;;;;;2.00;0.20;;;;;;;7.03;71.53;97988.41;1728622;82;22077;-74
2021/12/02 01:41:46;;;;;;;2.20;0.30;;;;;;;6.98;70.59;98015.66;1716213;82;21057;-74
2021/12/02 01:44:15;;;;;;;0.77;0.40;;;;;;;6.90;70.40;98011.77;1691852;83;21037;-74
2021/12/02 01:46:43;;;;;;;0.50;0.20;;;;;;;6.84;69.62;98017.31;1766670;80;21002;-73
2021/12/02 01:49:12;;;;;;;1.93;0.30;;;;;;;6.76;69.98;98013.06;1718086;82;21045;-74
2021/12/02 01:51:43;;;;;;;0.98;0.30;;;;;;;6.69;70.15;98021.69;1701306;83;21117;-74
2021/12/02 01:54:17;;;;;;;0.60;0.40;;;;;;;6.60;70.34;98021.41;1700848;83;21007;-73
2021/12/02 01:56:50;;;;;;;1.07;0.30;;;;;;;6.52;69.66;98035.33;1701081;83;21550;-74
2021/12/02 01:59:23;;;;;;;1.30;0.67;;;;;;;6.44;69.99;98031.39;1700045;83;21023;-73
2021/12/02 02:01:54;;;;;;;2.60;0.40;;;;;;;6.38;70.16;98036.96;1699920;83;21477;-73
2021/12/02 02:04:23;;;;;;;0.90;0.40;;;;;;;6.31;69.76;98032.19;1711137;82;21151;-75
2021/12/02 02:07:12;;;;;;;1.20;0.30;;;;;;;6.25;69.50;98037.28;1700673;83;21000;-74
2021/12/02 02:09:40;;;;;;;3.37;0.40;;;;;;;6.19;69.59;98033.73;1717795;82;21511;-73
2021/12/02 02:12:12;;;;;;;1.07;0.37;;;;;;;6.12;69.49;98038.90;1700872;83;21029;-74
2021/12/02 02:14:42;;;;;;;1.53;0.37;;;;;;;6.05;69.61;98041.02;1701240;83;21063;-74
2021/12/02 02:17:48;;;;;;;1.73;0.40;;;;;;;6.00;69.78;98043.88;1700795;83;21966;-74
2021/12/02 02:19:43;;;;;;;1.97;0.40;;;;;;;5.96;69.94;98051.48;1750228;81;21014;-73
2021/12/02 02:22:12;;;;;;;1.77;0.47;;;;;;;5.92;70.13;98061.62;1718841;82;21042;-75
2021/12/02 02:24:39;;;;;;;2.37;0.50;;;;;;;5.88;70.25;98042.41;1700805;84;21557;-74
2021/12/02 02:27:06;;;;;;;2.20;0.40;;;;;;;5.87;70.23;98057.14;1701434;83;21023;-74
2021/12/02 02:29:33;;;;;;;1.73;0.40;;;;;;;5.85;69.89;98072.01;1717268;81;21273;-74
2021/12/02 02:32:00;;;;;;;1.20;0.30;;;;;;;5.86;69.34;98052.04;1766081;80;20987;-73
2021/12/02 02:34:27;;;;;;;0.83;0.30;;;;;;;5.85;69.39;98055.11;1725265;82;21030;-75
2021/12/02 02:36:56;;;;;;;2.27;0.50;;;;;;;5.83;69.92;98053.05;1708205;83;20989;-73
2021/12/02 02:39:25;;;;;;;2.57;0.40;;;;;;;5.79;69.87;98049.78;1740968;82;21014;-75
2021/12/02 02:42:00;;;;;;;1.80;0.50;;;;;;;5.75;69.94;98051.33;1742510;81;21129;-73
2021/12/02 02:44:31;;;;;;;2.00;0.40;;;;;;;5.71;69.78;98055.86;1743461;81;21041;-74
2021/12/02 02:46:58;;;;;;;1.37;0.40;;;;;;;5.68;69.83;98060.38;1727654;82;20988;-74
2021/12/02 02:49:25;;;;;;;2.30;0.57;;;;;;;5.66;69.83;98083.03;1743264;81;21030;-75
2021/12/02 02:51:52;;;;;;;1.50;0.40;;;;;;;5.63;69.74;98072.80;1743056;81;21554;-73
2021/12/02 02:54:21;;;;;;;1.10;0.40;;;;;;;5.59;69.34;98083.34;1742987;81;21968;-74
2021/12/02 02:57:00;;;;;;;1.83;0.43;;;;;;;5.59;69.58;98069.51;1714362;82;20996;-76
2021/12/02 03:02:06;;;;;;;2.60;0.43;;;;;;;5.52;69.25;98087.66;1778352;80;21028;-75
2021/12/02 03:04:40;;;;;;;1.62;0.50;;;;;;;5.49;69.13;98099.06;1780746;80;24202;-74
2021/12/02 03:07:22;;;;;;;1.87;0.40;;;;;;;5.48;68.98;98110.35;1743476;81;21135;-73
2021/12/02 03:12:15;;;;;;;2.60;0.50;;;;;;;5.47;68.83;98087.91;1801250;79;21005;-73
2021/12/02 03:17:09;;;;;;;;;;;;;;;5.44;68.88;98096.33;1804055;79;20996;-75
2021/12/02 03:19:43;;;;;;;1.33;0.40;;;;;;;5.42;68.91;98102.05;1801198;79;21115;-74
2021/12/02 03:22:12;;;;;;;2.83;0.20;;;;;;;5.41;68.97;98106.42;1801200;79;20993;-74
2021/12/02 03:24:39;;;;;;;1.47;0.20;;;;;;;5.39;68.79;98100.45;1801273;79;21478;-74
2021/12/02 03:27:07;;;;;;;1.63;0.60;;;;;;;5.36;69.07;98112.31;1801472;79;21615;-75
2021/12/02 03:29:34;;;;;;;1.57;0.50;;;;;;;5.35;68.97;98101.55;1801256;79;21016;-73
2021/12/02 03:32:02;;;;;;;3.87;0.57;;;;;;;5.34;68.91;98097.26;1801551;79;21873;-73
2021/12/02 03:34:29;;;;;;;1.93;0.50;;;;;;;5.33;68.58;98102.08;1801278;79;20988;-74
2021/12/02 03:36:56;;;;;;;2.43;0.30;;;;;;;5.34;68.67;98101.98;1801498;79;20985;-73
2021/12/02 03:39:23;;;;;;;1.70;0.40;;;;;;;5.32;68.53;98107.75;1801168;79;21027;-74
2021/12/02 03:41:50;;;;;;;1.23;0.30;;;;;;;5.31;68.74;98119.03;1801272;79;20986;-73
2021/12/02 03:44:17;;;;;;;1.57;0.37;;;;;;;5.29;68.31;98106.61;1801384;79;21467;-73
2021/12/02 03:46:44;;;;;;;6.63;0.60;;;;;;;5.27;68.62;98107.14;1801125;79;20988;-75
2021/12/02 03:49:11;;;;;;;1.83;0.47;;;;;;;5.25;68.59;98109.44;1801213;79;20996;-73
2021/12/02 03:51:38;;;;;;;1.37;0.20;;;;;;;5.23;68.81;98120.36;1801286;79;20978;-73
2021/12/02 03:54:07;;;;;;;3.37;0.43;;;;;;;5.20;68.56;98127.02;1801342;79;21542;-74
2021/12/02 03:56:35;;;;;;;0.93;0.35;;;;;;;5.18;68.70;98103.70;1801430;79;21116;-74
2021/12/02 03:59:03;;;;;;;1.03;0.40;;;;;;;5.15;68.88;98125.94;1801456;79;21024;-73
2021/12/02 04:01:30;;;;;;;1.00;0.23;;;;;;;5.13;68.80;98126.03;1801141;79;20985;-76
2021/12/02 04:03:58;;;;;;;1.33;0.40;;;;;;;5.14;68.83;98121.67;1801699;79;21335;-74
2021/12/02 04:06:25;;;;;;;1.40;0.40;;;;;;;5.13;68.71;98107.02;1801339;79;21004;-75
2021/12/02 04:09:04;;;;;;;1.53;0.67;;;;;;;5.11;68.83;98113.58;1801584;79;21161;-75
2021/12/02 04:16:29;;;;;;;1.00;0.40;;;;;;;5.03;68.91;98121.38;1801314;79;21481;-74
2021/12/02 04:18:55;;;;;;;1.23;0.40;;;;;;;5.02;69.04;98128.34;1801406;79;21055;-75
2021/12/02 04:21:22;;;;;;;1.40;0.33;;;;;;;5.01;69.02;98121.91;1801170;79;21118;-74
2021/12/02 04:23:49;;;;;;;2.33;0.40;;;;;;;5.02;68.99;98129.64;1801477;79;21474;-74
2021/12/02 04:26:16;;;;;;;1.47;0.47;;;;;;;5.05;69.01;98133.37;1801279;79;20993;-74
2021/12/02 04:28:43;;;;;;;1.23;0.20;;;;;;;5.03;69.11;98144.28;1801338;79;21016;-74
2021/12/02 04:31:10;;;;;;;2.40;0.30;;;;;;;5.02;69.23;98145.68;1801296;79;22039;-75
2021/12/02 04:33:37;;;;;;;1.10;0.30;;;;;;;5.00;69.29;98161.32;1801140;79;21124;-74
2021/12/02 04:36:06;;;;;;;2.93;0.40;;;;;;;5.00;69.33;98157.42;1801253;79;20962;-74
2021/12/02 04:38:34;;;;;;;4.10;0.40;;;;;;;4.96;68.96;98176.69;1801981;79;21012;-74
2021/12/02 04:41:01;;;;;;;4.03;0.40;;;;;;;4.96;69.20;98156.34;1801251;79;21008;-74
2021/12/02 04:43:29;;;;;;;1.13;0.40;;;;;;;4.96;69.30;98190.09;1801453;79;21467;-74
2021/12/02 04:45:56;;;;;;;1.80;0.70;;;;;;;4.97;69.27;98174.45;1801290;79;21930;-74
2021/12/02 04:48:24;;;;;;;2.87;0.40;;;;;;;4.96;69.26;98176.69;1801437;79;20998;-74
2021/12/02 04:50:51;;;;;;;2.93;0.53;;;;;;;4.92;69.32;98177.73;1801082;79;21576;-74
2021/12/02 04:53:19;;;;;;;2.53;0.50;;;;;;;4.91;69.35;98175.60;1801454;79;21052;-74
2021/12/02 04:55:47;;;;;;;2.73;0.80;;;;;;;4.90;69.32;98183.45;1801199;79;20961;-74
2021/12/02 04:58:13;;;;;;;1.87;0.40;;;;;;;4.88;69.38;98192.63;1801538;79;21100;-74
2021/12/02 05:00:40;;;;;;;1.40;0.63;;;;;;;4.94;69.04;98190.66;1801113;79;20984;-73
2021/12/02 05:03:07;;;;;;;2.80;0.40;;;;;;;5.01;69.17;98207.12;1801493;79;21029;-76
2021/12/02 05:05:34;;;;;;;1.73;0.60;;;;;;;5.06;68.99;98209.04;1801167;79;20977;-74
2021/12/02 05:08:04;;;;;;;3.33;0.50;;;;;;;5.09;69.29;98219.27;1801617;79;21037;-74
2021/12/02 05:10:31;;;;;;;2.90;0.63;;;;;;;5.10;69.07;98243.05;1801204;79;21118;-74
2021/12/02 05:12:58;;;;;;;3.77;0.70;;;;;;;5.10;69.23;98208.45;1801433;79;20977;-75
2021/12/02 05:15:25;;;;;;;1.80;0.57;;;;;;;5.09;69.24;98202.39;1801239;79;21000;-74
2021/12/02 05:17:52;;;;;;;7.40;0.60;;;;;;;5.07;69.24;98205.55;1801418;79;20977;-74
2021/12/02 05:20:19;;;;;;;1.63;0.60;;;;;;;5.05;69.33;98202.18;1801262;79;21048;-74
2021/12/02 05:22:46;;;;;;;2.90;0.80;;;;;;;5.01;69.25;98205.83;1801555;79;21109;-75
2021/12/02 05:25:13;;;;;;;1.83;0.50;;;;;;;4.97;68.96;98195.23;1801249;79;20972;-76
2021/12/02 05:27:41;;;;;;;2.37;0.40;;;;;;;4.95;69.00;98207.44;1801537;79;21008;-76
2021/12/02 05:30:10;;;;;;;2.73;0.77;;;;;;;4.92;68.92;98201.09;1801085;79;20962;-75
2021/12/02 05:32:37;;;;;;;1.73;0.67;;;;;;;4.92;69.02;98206.29;1801536;79;21510;-74
2021/12/02 05:35:06;;;;;;;2.83;0.57;;;;;;;4.90;68.83;98228.88;1801131;79;21558;-76
2021/12/02 05:37:33;;;;;;;1.73;0.43;;;;;;;4.91;69.05;98218.44;1801430;79;21004;-74
2021/12/02 05:40:01;;;;;;;1.60;0.73;;;;;;;4.94;68.91;98207.06;1769675;79;21216;-75
2021/12/02 05:42:29;;;;;;;3.13;0.77;;;;;;;4.96;69.11;98226.01;1760033;81;21053;-74
2021/12/02 05:44:56;;;;;;;1.53;0.60;;;;;;;4.98;69.25;98231.94;1760046;81;21005;-74
2021/12/02 05:47:24;;;;;;;3.07;0.50;;;;;;;4.99;69.33;98227.16;1760085;81;21229;-75
2021/12/02 05:49:51;;;;;;;2.30;0.53;;;;;;;4.95;69.33;98239.88;1760241;81;21060;-74
2021/12/02 05:52:18;;;;;;;2.30;0.67;;;;;;;4.85;69.78;98230.85;1760238;81;20977;-75
2021/12/02 05:54:45;;;;;;;1.83;0.50;;;;;;;4.80;70.06;98244.53;1760288;81;21014;-74
2021/12/02 05:57:12;;;;;;;2.57;0.50;;;;;;;4.74;70.32;98258.64;1760274;81;21324;-74
2021/12/02 05:59:39;;;;;;;3.27;0.53;;;;;;;4.69;70.44;98260.15;1760219;81;21127;-74
2021/12/02 06:02:07;;;;;;;3.10;0.80;;;;;;;4.62;70.84;98274.31;1760205;81;21020;-77
2021/12/02 06:04:38;;;;;;;1.90;0.60;;;;;;;4.57;70.84;98280.20;1760308;81;20974;-75
2021/12/02 06:07:05;;;;;;;1.52;0.53;;;;;;;4.41;71.12;98270.14;1760577;81;20981;-76
2021/12/02 06:09:32;;;;;;;2.33;0.50;;;;;;;4.27;71.67;98278.55;1760208;81;21001;-74
2021/12/02 06:12:00;;;;;;;3.30;0.60;;;;;;;4.19;71.97;98302.69;1760429;81;21163;-74
2021/12/02 06:14:27;;;;;;;1.57;0.30;;;;;;;4.12;72.29;98257.20;1760138;81;21001;-75
2021/12/02 06:16:54;;;;;;;2.47;0.70;;;;;;;4.09;72.46;98277.61;1760358;81;21021;-74
2021/12/02 06:19:21;;;;;;;1.93;0.50;;;;;;;4.03;72.46;98273.55;1760157;81;21474;-75
2021/12/02 06:21:50;;;;;;;1.90;0.50;;;;;;;3.99;72.39;98268.55;1760414;81;21046;-75
2021/12/02 06:24:18;;;;;;;2.13;0.40;;;;;;;3.95;72.31;98283.41;1760765;81;21133;-74
2021/12/02 06:26:46;;;;;;;2.03;0.40;;;;;;;3.91;72.17;98279.74;1760282;81;21004;-75
2021/12/02 06:29:13;;;;;;;1.20;0.37;;;;;;;3.86;72.08;98275.21;1760266;81;21008;-74
2021/12/02 06:31:40;;;;;;;1.50;0.30;;;;;;;3.82;72.00;98281.42;1760375;81;20989;-75
2021/12/02 06:34:07;;;;;;;2.43;0.40;;;;;;;3.80;71.90;98286.23;1760244;81;20993;-76
2021/12/02 06:36:36;;;;;;;1.03;0.30;;;;;;;3.79;71.91;98283.23;1760536;81;21115;-75
2021/12/02 06:39:05;;;;;;;4.83;1.13;;;;;;;3.77;71.95;98293.30;1770733;79;21510;-74
2021/12/02 06:41:33;;;;;;;3.13;0.40;;;;;;;3.73;72.11;98295.63;1801250;79;20921;-73
2021/12/02 06:44:00;;;;;;;3.03;0.40;;;;;;;3.69;72.24;98300.09;1781666;79;21061;-74
2021/12/02 06:46:29;;;;;;;3.07;0.53;;;;;;;3.64;72.33;98302.04;1801326;79;21024;-73
2021/12/02 06:48:56;;;;;;;2.33;0.50;;;;;;;3.60;72.49;98309.99;1801730;79;21083;-74
2021/12/02 06:51:23;;;;;;;3.53;0.40;;;;;;;3.59;72.56;98332.47;1801141;79;21478;-74
2021/12/02 06:53:50;;;;;;;1.93;0.37;;;;;;;3.60;72.54;98349.69;1801570;79;20988;-76
2021/12/02 06:56:17;;;;;;;2.30;0.77;;;;;;;3.61;72.64;98346.67;1801433;79;21048;-74
2021/12/02 06:58:44;;;;;;;3.63;0.80;;;;;;;3.60;72.84;98350.98;1801597;79;20965;-74
2021/12/02 07:01:11;;;;;;;2.23;0.40;;;;;;;3.59;72.97;98353.20;1801482;79;21513;-75
2021/12/02 07:03:38;;;;;;;2.37;0.60;;;;;;;3.59;73.03;98353.20;1801612;79;22004;-74
2021/12/02 07:06:05;;;;;;;2.23;0.50;;;;;;;3.60;73.16;98359.22;1801168;79;21047;-74
2021/12/02 07:08:33;;;;;;;2.57;0.77;;;;;;;3.60;73.16;98361.34;1801639;79;21009;-74
2021/12/02 07:11:03;;;;;;;3.90;0.67;;;;;;;3.63;73.16;98365.13;1801334;79;20982;-74
2021/12/02 07:13:28;;;;;;;1.03;0.60;;;;;;;3.65;73.09;98364.59;1801047;79;21571;-74
2021/12/02 07:15:57;;;;;;;1.57;0.60;;;;;;;3.64;73.26;98368.10;1801210;79;21005;-74
2021/12/02 07:18:25;;;;;;;1.80;0.50;;;;;;;3.63;73.28;98379.81;1801319;79;20982;-74
2021/12/02 07:20:53;;;;;;;4.03;1.40;;;;;;;3.63;73.38;98372.91;1801550;79;20989;-74
2021/12/02 07:23:21;;;;;;;3.03;0.63;;;;;;;3.62;73.39;98367.77;1801278;79;20988;-74
2021/12/02 07:25:51;;;;;;;1.43;0.60;;;;;;;3.58;73.32;98376.97;1801137;79;21635;-76
2021/12/02 07:28:21;;;;;;;5.97;0.93;;;;;;;3.62;73.37;98378.97;1801365;79;20954;-73
2021/12/02 07:30:52;;;;;;;4.22;0.90;;;;;;;3.62;73.31;98369.91;1801405;79;21451;-74
2021/12/02 07:33:20;;;;;;;2.73;0.60;;;;;;;3.61;73.39;98392.84;1800711;79;21009;-74
2021/12/02 07:35:48;;;;;;;2.40;0.83;;;;;;;3.58;73.47;98385.20;1801288;79;21569;-74
2021/12/02 07:38:15;;;;;;;1.67;0.57;;;;;;;3.60;73.45;98394.19;1801500;79;21942;-75
2021/12/02 07:40:42;;;;;;;5.60;1.30;;;;;;;3.63;73.37;98396.22;1768521;79;21956;-72
2021/12/02 07:43:09;;;;;;;2.67;0.60;;;;;;;3.66;73.25;98406.45;1760387;81;20982;-73
2021/12/02 07:45:37;;;;;;;2.50;0.80;;;;;;;3.66;73.17;98405.59;1760107;81;21995;-82
2021/12/02 07:48:07;;;;;;;4.23;0.70;;;;;;;3.71;72.95;98420.03;1760595;81;21001;-75
2021/12/02 07:50:36;;;;;;;3.03;0.93;;;;;;;3.74;72.80;98410.00;1760083;81;22232;-74
2021/12/02 07:53:08;;;;;;;2.12;0.62;;;;;;;3.75;72.87;98424.20;1743612;80;21062;-75
2021/12/02 07:55:40;;;;;;;3.83;0.60;;;;;;;3.76;72.90;98423.29;1780910;78;21082;-76
2021/12/02 07:58:10;;;;;;;2.73;0.60;;;;;;;3.77;72.76;98431.47;1786394;80;20987;-74
2021/12/02 08:00:38;;;;;;;5.67;0.70;;;;;;;3.80;72.58;98436.52;1786243;80;21515;-74
2021/12/02 08:03:10;;;;;;;2.13;0.77;;;;;;;3.80;72.35;98445.59;1786424;79;22004;-77
2021/12/02 08:05:39;;;;;;;3.93;0.70;;;;;;;3.81;72.46;98447.73;1785304;80;21488;-73
2021/12/02 08:08:07;;;;;;;4.20;0.57;;;;;;;3.83;72.48;98445.92;1760826;80;21008;-77
2021/12/02 08:10:34;;;;;;;4.70;0.87;;;;;;;3.87;72.39;98445.34;1755082;81;20999;-77
2021/12/02 08:13:02;;;;;;;4.57;0.90;;;;;;;3.88;72.35;98456.08;1755465;81;21214;-76
2021/12/02 08:15:31;;;;;;;2.83;0.70;;;;;;;3.89;72.58;98479.82;1755000;81;21267;-77
2021/12/02 08:17:58;;;;;;;4.40;0.67;;;;;;;3.92;72.58;98483.12;1755018;81;21473;-78
2021/12/02 08:20:28;;;;;;;2.70;0.60;;;;;;;3.96;72.41;98473.03;1755057;81;21471;-76
2021/12/02 08:22:55;;;;;;;2.07;0.70;;;;;;;3.99;72.44;98483.70;1755021;81;21352;-72
2021/12/02 08:25:25;;;;;;;5.30;0.60;;;;;;;4.02;72.45;98474.53;1757359;80;21481;-75
2021/12/02 08:27:53;;;;;;;5.17;0.82;;;;;;;4.03;72.31;98474.45;1769074;80;21078;-74
2021/12/02 08:30:24;;;;;;;2.23;0.60;;;;;;;4.04;72.16;98467.51;1763811;80;20975;-75
2021/12/02 08:32:50;;;;;;;2.77;0.40;;;;;;;4.03;71.64;98482.69;1755100;80;21485;-75
2021/12/02 08:35:18;;;;;;;2.43;1.03;;;;;;;4.07;71.68;98488.58;1764547;80;21031;-74
2021/12/02 08:37:49;;;;;;;4.67;1.03;;;;;;;4.06;71.76;98499.87;1781344;80;21018;-73
2021/12/02 08:40:22;;;;;;;3.03;0.60;;;;;;;4.02;71.83;98502.59;1782613;80;21970;-74
2021/12/02 08:42:49;;;;;;;4.73;0.60;;;;;;;4.00;71.86;98512.16;1785524;80;21069;-73
2021/12/02 08:45:16;;;;;;;4.07;0.87;;;;;;;3.99;71.84;98515.67;1778633;78;21421;-75
2021/12/02 08:47:44;;;;;;;1.83;0.70;;;;;;;3.98;71.89;98524.34;1729074;82;21064;-75
2021/12/02 08:50:15;;;;;;;2.80;0.67;;;;;;;3.94;71.57;98534.45;1712394;83;21043;-74
2021/12/02 08:52:43;;;;;;;1.93;0.60;;;;;;;3.91;71.46;98537.63;1723813;83;21155;-75
2021/12/02 08:55:11;;;;;;;2.13;0.70;;;;;;;3.94;71.51;98544.82;1709395;82;21055;-76
2021/12/02 08:57:38;;;;;;;5.37;0.60;;;;;;;4.06;71.60;98549.96;1700908;83;21533;-73
2021/12/02 09:00:09;;;;;;;5.43;0.90;;;;;;;4.17;71.44;98545.64;1700993;83;21023;-74
2021/12/02 09:02:36;;;;;;;2.93;0.80;;;;;;;4.24;71.54;98545.80;1700931;83;20992;-74
2021/12/02 09:05:04;;;;;;;5.83;1.60;;;;;;;4.33;71.50;98535.03;1701017;83;21125;-76
2021/12/02 09:07:32;;;;;;;3.87;0.93;;;;;;;4.41;71.39;98530.37;1701060;83;21055;-77
2021/12/02 09:09:59;;;;;;;4.13;0.70;;;;;;;4.50;71.24;98543.87;1701087;83;21027;-76
2021/12/02 09:12:26;;;;;;;5.90;1.00;;;;;;;4.55;70.89;98546.66;1701170;83;21023;-77
2021/12/02 09:14:53;;;;;;;3.77;0.60;;;;;;;4.63;70.75;98550.23;1705093;83;21051;-77
2021/12/02 09:17:20;;;;;;;4.67;0.70;;;;;;;4.64;70.46;98546.72;1693823;83;21114;-75
2021/12/02 09:19:48;;;;;;;4.13;0.80;;;;;;;4.68;70.51;98541.77;1686121;85;21023;-75
2021/12/02 09:22:15;;;;;;;3.00;0.70;;;;;;;4.75;70.50;98545.80;1685961;85;21024;-75
2021/12/02 09:24:41;;;;;;;4.37;0.70;;;;;;;4.79;70.09;98552.53;1686288;85;21063;-75
2021/12/02 09:27:09;;;;;;;4.30;0.80;;;;;;;4.83;70.16;98546.77;1686028;85;21008;-74
2021/12/02 09:29:37;;;;;;;5.23;0.80;;;;;;;4.87;69.80;98557.40;1686213;85;21182;-75
2021/12/02 09:32:05;;;;;;;2.63;0.53;;;;;;;4.88;69.01;98553.91;1685885;85;21004;-74
2021/12/02 09:34:32;;;;;;;2.47;0.50;;;;;;;4.89;69.32;98573.77;1697295;83;21052;-75
2021/12/02 09:36:59;;;;;;;2.60;0.67;;;;;;;4.91;68.97;98571.48;1700999;84;21501;-74
2021/12/02 09:39:30;;;;;;;2.70;0.70;;;;;;;4.97;68.71;98550.91;1711121;82;21031;-75
2021/12/02 09:41:57;;;;;;;2.80;1.00;;;;;;;5.02;68.81;98564.53;1762224;81;21140;-75
2021/12/02 09:44:24;;;;;;;4.23;0.70;;;;;;;5.07;68.50;98559.12;1761631;80;20872;-74
2021/12/02 09:46:52;;;;;;;6.90;0.70;;;;;;;5.03;68.66;98548.03;1761908;81;21065;-74
2021/12/02 09:49:20;;;;;;;5.37;0.87;;;;;;;5.00;68.66;98549.93;1762096;81;21496;-75
2021/12/02 09:54:26;;;;;;;5.10;0.60;;;;;;;5.22;68.27;98580.53;1762062;81;21889;-74
2021/12/02 09:56:56;;;;;;;3.33;0.60;;;;;;;5.26;67.93;98549.59;1762055;80;21003;-76
2021/12/02 09:59:28;;;;;;;4.10;1.35;;;;;;;5.35;67.99;98544.01;1762117;80;21038;-75
2021/12/02 10:02:04;;;;;;;4.70;0.70;;;;;;;5.47;67.72;98554.75;1761972;80;20992;-74
2021/12/02 10:04:28;;;;;;;2.03;0.53;;;;;;;5.47;67.49;98541.30;1761232;81;21018;-74
2021/12/02 10:07:23;;;;;;;5.47;1.03;;;;;;;5.51;65.83;98540.23;1761993;80;21359;-74
2021/12/02 10:10:24;;;;;;;4.97;0.80;;;;;;;5.50;65.95;98529.46;1762023;81;21049;-75
2021/12/02 10:13:10;;;;;;;2.93;0.47;;;;;;;5.57;64.76;98523.08;1762208;80;21018;-75
2021/12/02 10:15:38;;;;;;;4.43;0.90;;;;;;;5.65;64.57;98525.76;1751318;81;21010;-75
2021/12/02 10:18:16;;;;;;;4.20;0.80;;;;;;;5.66;65.17;98542.59;1762098;81;21416;-75
2021/12/02 10:20:46;;;;;;;4.70;0.77;;;;;;;5.81;65.08;98535.82;1761957;80;21430;-75
2021/12/02 10:23:22;;;;;;;2.60;0.70;;;;;;;5.91;64.44;98544.04;1762095;81;21014;-74
2021/12/02 10:25:57;;;;;;;3.87;0.60;;;;;;;6.06;64.65;98546.39;1762072;81;21448;-75
2021/12/02 10:28:28;;;;;;;3.07;0.67;;;;;;;6.23;64.91;98529.48;1762304;81;21061;-75
2021/12/02 10:31:05;;;;;;;3.27;0.80;;;;;;;6.43;64.25;98548.88;1761945;81;21019;-74
2021/12/02 10:33:41;;;;;;;4.40;0.60;;;;;;;6.47;62.77;98554.77;1750825;81;21112;-74
2021/12/02 10:36:33;;;;;;;4.50;0.70;;;;;;;6.52;63.41;98546.28;1731871;82;21011;-75
2021/12/02 10:39:24;;;;;;;4.85;0.85;;;;;;;6.68;63.16;98543.28;1734609;82;21014;-75
2021/12/02 10:42:05;;;;;;;2.13;0.60;;;;;;;6.77;62.38;98553.69;1716297;82;21027;-74
2021/12/02 10:44:34;;;;;;;3.60;0.80;;;;;;;6.84;62.38;98557.64;1752894;80;21021;-75
2021/12/02 10:47:06;;;;;;;2.63;0.57;;;;;;;6.93;61.82;98555.05;1728416;82;21075;-74
2021/12/02 10:49:50;;;;;;;2.07;0.70;;;;;;;6.92;60.51;98563.77;1728691;82;20923;-73
2021/12/02 10:52:24;;;;;;;3.90;1.03;;;;;;;6.87;60.33;98534.51;1791744;79;21459;-75
2021/12/02 10:55:08;;;;;;;4.67;0.70;;;;;;;6.93;60.56;98566.30;1814718;79;20976;-74
2021/12/02 11:00:12;;;;;;;4.93;0.73;;;;;;;7.20;60.99;98576.20;1793807;79;21963;-73
2021/12/02 11:02:47;;;;;;;4.93;0.80;;;;;;;7.35;60.24;98588.44;1782243;79;21025;-74
2021/12/02 11:05:28;;;;;;;2.80;0.80;;;;;;;7.33;58.75;98573.33;1795608;79;21393;-73
2021/12/02 11:08:05;;;;;;;2.87;0.70;;;;;;;7.30;59.56;98570.89;1795596;79;21504;-75
2021/12/02 11:10:43;;;;;;;3.40;0.80;;;;;;;7.37;59.53;98573.56;1796108;79;20986;-73
2021/12/02 11:13:14;;;;;;;3.03;0.97;;;;;;;7.55;59.47;98583.92;1796031;79;20970;-75
2021/12/02 11:15:41;;;;;;;3.33;0.70;;;;;;;7.53;59.00;98586.60;1776171;79;21014;-73
2021/12/02 11:18:11;;;;;;;4.13;1.10;;;;;;;7.60;59.28;98592.34;1796332;79;21433;-75
2021/12/02 11:20:44;;;;;;;3.95;0.93;;;;;;;7.57;59.25;98594.66;1796095;79;21038;-74
2021/12/02 11:23:18;;;;;;;2.30;0.53;;;;;;;7.62;58.20;98588.34;1796203;79;21047;-74
2021/12/02 11:26:01;;;;;;;3.90;0.90;;;;;;;7.54;56.32;98596.13;1791651;79;21117;-81
2021/12/02 11:28:33;;;;;;;3.37;0.70;;;;;;;7.49;57.24;98611.63;1782905;77;20978;-75
2021/12/02 11:31:10;;;;;;;3.90;0.90;;;;;;;7.51;57.19;98608.46;1782419;79;20993;-75
2021/12/02 11:33:39;;;;;;;2.30;0.57;;;;;;;7.20;57.17;98607.47;1798359;79;21001;-75
2021/12/02 11:36:28;;;;;;;1.77;0.50;;;;;;;6.95;57.12;98621.37;1801403;79;21558;-75
2021/12/02 11:38:59;;;;;;;5.77;0.90;;;;;;;7.05;56.88;98632.55;1788505;79;21332;-76
2021/12/02 11:41:24;;;;;;;2.87;0.60;;;;;;;7.08;57.17;98617.23;1803127;78;21062;-75
2021/12/02 11:43:53;;;;;;;5.80;0.80;;;;;;;7.18;56.62;98617.15;1789276;79;21074;-75
2021/12/02 11:46:21;;;;;;;4.70;0.70;;;;;;;7.20;56.98;98626.17;1772598;79;21066;-75
2021/12/02 11:48:48;;;;;;;3.70;0.80;;;;;;;7.26;56.59;98636.27;1771211;79;21014;-75
2021/12/02 11:51:21;;;;;;;6.27;0.83;;;;;;;7.38;57.03;98630.44;1718286;82;21132;-74
2021/12/02 11:53:48;;;;;;;2.43;0.63;;;;;;;7.55;56.42;98624.34;1692643;83;21081;-75
2021/12/02 11:56:19;;;;;;;3.73;0.90;;;;;;;7.52;56.36;98625.80;1722496;82;21132;-74
2021/12/02 11:58:49;;;;;;;4.43;0.87;;;;;;;7.57;56.15;98627.71;1707118;84;21476;-75
2021/12/02 12:01:23;;;;;;;4.58;1.47;;;;;;;7.56;55.47;98629.45;1766528;80;20999;-75
2021/12/02 12:04:09;;;;;;;3.50;0.97;;;;;;;7.49;55.56;98630.72;1766428;81;21105;-75
2021/12/02 12:06:41;;;;;;;3.73;0.97;;;;;;;7.48;55.56;98626.44;1765798;81;21030;-75
2021/12/02 12:09:13;;;;;;;4.07;0.90;;;;;;;7.51;55.28;98629.31;1766353;81;20991;-75
2021/12/02 12:11:50;;;;;;;3.27;0.80;;;;;;;7.44;54.84;98637.93;1765726;81;21480;-75
2021/12/02 12:14:19;;;;;;;1.80;0.73;;;;;;;7.45;55.25;98630.95;1766484;81;21022;-75
2021/12/02 12:16:50;;;;;;;3.33;0.73;;;;;;;7.56;55.86;98637.74;1764015;81;22132;-75
2021/12/02 12:19:29;;;;;;;2.87;0.70;;;;;;;7.59;55.14;98639.75;1766256;81;21013;-76